KACT/ACT METAR and TAF weather

Enter ICAO airport designator
Station Type Date Time Source
KACT METAR 2018/10/19 14:51 UTC NOAA

KACT 191451Z 01006KT 10SM OVC019 16/14 A3022 RMK AO2 SLP230 60000 T01560139 53005


Station Type Date Time Source
KACT Decoded METAR 2018/10/19 14:51 UTC NOAA

WACO REGIONAL AIRPORT, TX, United States (KACT) 31-36N 97-13W 151M
Oct 19, 2018 - 10:51 AM EDT / 2018.10.19 1451 UTC
Wind: from the N (010 degrees) at 7 MPH (6 KT):0
Visibility: 10 mile(s):0
Sky conditions: overcast
Temperature: 60.1 F (15.6 C)
Dew Point: 57.0 F (13.9 C)
Relative Humidity: 89%
Pressure (altimeter): 30.22 in. Hg (1023 hPa)
Pressure tendency: 0.01 inches (0.5 hPa) higher than three hours ago
ob: KACT 191451Z 01006KT 10SM OVC019 16/14 A3022 RMK AO2 SLP230 60000 T01560139 53005
cycle: 15

Station Type Date Time Source
KACT TAF 2018/10/19 15:06 UTC NOAA

TAF
AMD KACT 191504Z 1915/2012 01005KT 6SM -SHRA OVC015
TEMPO 1915/1917 3SM -SHRA BR
FM191700 36006KT 3SM SHRA BR OVC012
TEMPO 1920/1924 3SM SHRA BKN007
FM200100 35003KT 5SM -RA BR OVC012
FM200700 35003KT 3SM BR BKN007


Example: see airport list